Wetterstation Oberdrees
Wetterdaten: aktuell Donnerstag, 29.02.2024 20:40
Datum Zeit Temp. A. Feuchte A. Luftdruck Regen Wind Richtung Richtung Taupunkt Windchill Windben
29.02.2024 20:40 8,9 C 57 % 1007,3 hPa 0,0 l/m 4,8 km/h (1 Bft) SO 130 0,9 C 8,9 C 16,1 km/h (3 Bft)
29.02.2024 20:35 8,9 C 57 % 1007,5 hPa 0,0 l/m 5,3 km/h (1 Bft) S 176 0,9 C 8,9 C 14,5 km/h (3 Bft)
29.02.2024 20:30 8,9 C 57 % 1007,5 hPa 0,0 l/m 4,6 km/h (1 Bft) W-SW 255 0,9 C 8,9 C 14,5 km/h (3 Bft)
29.02.2024 20:25 8,8 C 58 % 1007,5 hPa 0,0 l/m 4,7 km/h (1 Bft) S-SW 192 1,0 C 8,8 C 19,3 km/h (3 Bft)
29.02.2024 20:20 8,8 C 58 % 1007,5 hPa 0,0 l/m 3,9 km/h (1 Bft) SO 132 1,0 C 8,8 C 11,3 km/h (2 Bft)
29.02.2024 20:15 8,7 C 59 % 1007,6 hPa 0,0 l/m 3,6 km/h (1 Bft) S 190 1,1 C 8,7 C 9,7 km/h (2 Bft)
29.02.2024 20:10 8,7 C 59 % 1007,6 hPa 0,0 l/m 2,7 km/h (1 Bft) S-SO 153 1,1 C 8,7 C 11,3 km/h (2 Bft)
29.02.2024 20:05 8,7 C 60 % 1007,7 hPa 0,0 l/m 2,3 km/h (1 Bft) S 190 1,4 C 8,7 C 8,0 km/h (2 Bft)
29.02.2024 20:00 8,7 C 60 % 1007,7 hPa 0,0 l/m 1,8 km/h (1 Bft) S 184 1,4 C 8,7 C 4,8 km/h (1 Bft)
29.02.2024 19:55 8,8 C 60 % 1007,7 hPa 0,0 l/m 2,6 km/h (1 Bft) S-SO 157 1,5 C 8,8 C 9,7 km/h (2 Bft)
29.02.2024 19:50 8,8 C 60 % 1007,6 hPa 0,0 l/m 2,4 km/h (1 Bft) S 175 1,5 C 8,8 C 11,3 km/h (2 Bft)
29.02.2024 19:45 8,9 C 60 % 1007,7 hPa 0,0 l/m 3,2 km/h (1 Bft) W-SW 257 1,6 C 8,9 C 11,3 km/h (2 Bft)
29.02.2024 19:40 8,9 C 60 % 1007,8 hPa 0,0 l/m 3,0 km/h (1 Bft) SW 219 1,6 C 8,9 C 8,0 km/h (2 Bft)
29.02.2024 19:35 8,9 C 60 % 1007,8 hPa 0,0 l/m 2,6 km/h (1 Bft) O 96 1,6 C 8,9 C 9,7 km/h (2 Bft)
29.02.2024 19:30 8,9 C 60 % 1007,9 hPa 0,0 l/m 2,3 km/h (1 Bft) S 171 1,6 C 8,9 C 6,4 km/h (2 Bft)
29.02.2024 19:25 9,1 C 60 % 1007,9 hPa 0,0 l/m 1,8 km/h (1 Bft) S 175 1,8 C 9,1 C 6,4 km/h (2 Bft)
29.02.2024 19:20 9,2 C 59 % 1007,9 hPa 0,0 l/m 1,6 km/h (1 Bft) S-SW 200 1,6 C 9,2 C 4,8 km/h (1 Bft)
29.02.2024 19:15 9,3 C 59 % 1008,0 hPa 0,0 l/m 2,0 km/h (1 Bft) S-SW 205 1,7 C 9,3 C 4,8 km/h (1 Bft)
29.02.2024 19:10 9,3 C 59 % 1008,1 hPa 0,0 l/m 2,9 km/h (1 Bft) SO 138 1,7 C 9,3 C 6,4 km/h (2 Bft)
29.02.2024 19:05 9,4 C 59 % 1008,0 hPa 0,0 l/m 4,3 km/h (1 Bft) S 171 1,8 C 9,4 C 9,7 km/h (2 Bft)
29.02.2024 19:00 9,4 C 59 % 1008,0 hPa 0,0 l/m 3,3 km/h (1 Bft) S-SW 207 1,8 C 9,4 C 11,3 km/h (2 Bft)
29.02.2024 18:55 9,3 C 60 % 1008,0 hPa 0,0 l/m 2,1 km/h (1 Bft) SO 125 1,9 C 9,3 C 4,8 km/h (1 Bft)
29.02.2024 18:50 9,3 C 61 % 1008,1 hPa 0,0 l/m 2,8 km/h (1 Bft) S 172 2,2 C 9,3 C 6,4 km/h (2 Bft)
29.02.2024 18:45 9,2 C 61 % 1008,2 hPa 0,0 l/m 2,9 km/h (1 Bft) S 174 2,1 C 9,2 C 6,4 km/h (2 Bft)
29.02.2024 18:40 9,3 C 62 % 1008,2 hPa 0,0 l/m 2,3 km/h (1 Bft) S 187 2,4 C 9,3 C 6,4 km/h (2 Bft)
29.02.2024 18:35 9,4 C 61 % 1008,3 hPa 0,0 l/m 2,0 km/h (1 Bft) S-SO 159 2,3 C 9,4 C 6,4 km/h (2 Bft)
29.02.2024 18:30 9,5 C 60 % 1008,4 hPa 0,0 l/m 1,9 km/h (1 Bft) S-SO 159 2,1 C 9,5 C 6,4 km/h (2 Bft)
29.02.2024 18:25 9,7 C 61 % 1008,5 hPa 0,0 l/m 0,4 km/h (0 Bft) S-SO 161 2,5 C 9,7 C 3,2 km/h (1 Bft)
29.02.2024 18:20 9,9 C 59 % 1008,5 hPa 0,0 l/m 1,2 km/h (1 Bft) S-SO 162 2,3 C 9,9 C 6,4 km/h (2 Bft)
29.02.2024 18:15 10,1 C 58 % 1008,5 hPa 0,0 l/m 0,8 km/h (0 Bft) S-SO 163 2,2 C 10,1 C 4,8 km/h (1 Bft)
29.02.2024 18:10 10,2 C 56 % 1008,5 hPa 0,0 l/m 1,5 km/h (1 Bft) S-SO 166 1,8 C 10,2 C 8,0 km/h (2 Bft)
29.02.2024 18:05 10,4 C 57 % 1008,7 hPa 0,0 l/m 1,3 km/h (1 Bft) S 169 2,3 C 10,4 C 8,0 km/h (2 Bft)
29.02.2024 18:00 10,6 C 56 % 1008,8 hPa 0,0 l/m 1,2 km/h (1 Bft) S 188 2,2 C 10,6 C 4,8 km/h (1 Bft)
29.02.2024 17:55 10,8 C 54 % 1008,7 hPa 0,0 l/m 0,1 km/h (0 Bft) S 190 1,9 C 10,8 C 3,2 km/h (1 Bft)
29.02.2024 17:50 11,0 C 53 % 1008,8 hPa 0,0 l/m 0,9 km/h (0 Bft) S 190 1,8 C 11,0 C 3,2 km/h (1 Bft)
29.02.2024 17:45 11,2 C 51 % 1008,8 hPa 0,0 l/m 0,6 km/h (0 Bft) S 190 1,4 C 11,2 C 3,2 km/h (1 Bft)
29.02.2024 17:40 11,3 C 51 % 1008,9 hPa 0,0 l/m 0,5 km/h (0 Bft) S-SW 202 1,5 C 11,3 C 3,2 km/h (1 Bft)
29.02.2024 17:35 11,4 C 51 % 1009,0 hPa 0,0 l/m 0,2 km/h (0 Bft) S-SW 202 1,6 C 11,4 C 1,6 km/h (1 Bft)
29.02.2024 17:30 11,5 C 50 % 1009,0 hPa 0,0 l/m 0,4 km/h (0 Bft) S-SW 202 1,4 C 11,5 C 4,8 km/h (1 Bft)
29.02.2024 17:25 11,6 C 51 % 1009,0 hPa 0,0 l/m 0,7 km/h (0 Bft) S-SW 202 1,8 C 11,6 C 3,2 km/h (1 Bft)
29.02.2024 17:20 11,6 C 51 % 1009,0 hPa 0,0 l/m 1,6 km/h (1 Bft) S-SW 202 1,8 C 11,6 C 6,4 km/h (2 Bft)
29.02.2024 17:15 11,6 C 52 % 1009,0 hPa 0,0 l/m 1,4 km/h (1 Bft) S-SW 205 2,1 C 11,6 C 4,8 km/h (1 Bft)
29.02.2024 17:10 11,7 C 51 % 1009,0 hPa 0,0 l/m 2,9 km/h (1 Bft) S-SW 207 1,9 C 11,7 C 6,4 km/h (2 Bft)
29.02.2024 17:05 11,7 C 53 % 1009,1 hPa 0,0 l/m 2,3 km/h (1 Bft) SW 236 2,4 C 11,7 C 8,0 km/h (2 Bft)
29.02.2024 17:00 11,7 C 52 % 1009,1 hPa 0,0 l/m 2,8 km/h (1 Bft) S-SW 207 2,2 C 11,7 C 8,0 km/h (2 Bft)
29.02.2024 16:55 11,8 C 53 % 1009,1 hPa 0,0 l/m 2,1 km/h (1 Bft) S 174 2,5 C 11,8 C 4,8 km/h (1 Bft)
29.02.2024 16:50 11,9 C 54 % 1009,2 hPa 0,0 l/m 3,1 km/h (1 Bft) W-SW 244 2,9 C 11,9 C 9,7 km/h (2 Bft)
29.02.2024 16:45 11,9 C 54 % 1009,4 hPa 0,0 l/m 4,1 km/h (1 Bft) S 183 2,9 C 11,9 C 9,7 km/h (2 Bft)
29.02.2024 16:40 12,0 C 55 % 1009,4 hPa 0,0 l/m 2,8 km/h (1 Bft) SO 134 3,2 C 12,0 C 8,0 km/h (2 Bft)
29.02.2024 16:35 12,1 C 55 % 1009,4 hPa 0,0 l/m 2,4 km/h (1 Bft) S-SO 160 3,3 C 12,1 C 6,4 km/h (2 Bft)
29.02.2024 16:30 12,1 C 55 % 1009,5 hPa 0,0 l/m 1,9 km/h (1 Bft) S 178 3,3 C 12,1 C 4,8 km/h (1 Bft)
29.02.2024 16:25 12,2 C 56 % 1009,5 hPa 0,0 l/m 2,4 km/h (1 Bft) S-SW 201 3,7 C 12,2 C 6,4 km/h (2 Bft)
29.02.2024 16:20 12,2 C 57 % 1009,5 hPa 0,0 l/m 1,3 km/h (1 Bft) S-SO 159 3,9 C 12,2 C 4,8 km/h (1 Bft)
29.02.2024 16:15 12,2 C 56 % 1009,6 hPa 0,0 l/m 1,4 km/h (1 Bft) S 189 3,7 C 12,2 C 4,8 km/h (1 Bft)
29.02.2024 16:10 12,2 C 56 % 1009,7 hPa 0,0 l/m 2,7 km/h (1 Bft) S 188 3,7 C 12,2 C 4,8 km/h (1 Bft)
29.02.2024 16:05 12,2 C 55 % 1009,6 hPa 0,0 l/m 5,8 km/h (2 Bft) SW 236 3,4 C 12,2 C 12,9 km/h (3 Bft)
29.02.2024 16:00 12,2 C 53 % 1009,7 hPa 0,0 l/m 6,2 km/h (2 Bft) S-SW 211 2,9 C 12,2 C 12,9 km/h (3 Bft)
29.02.2024 15:55 12,3 C 53 % 1009,8 hPa 0,0 l/m 6,2 km/h (2 Bft) S-SW 192 3,0 C 12,3 C 14,5 km/h (3 Bft)
29.02.2024 15:50 12,4 C 52 % 1009,8 hPa 0,0 l/m 5,8 km/h (2 Bft) S-SW 195 2,8 C 12,4 C 14,5 km/h (3 Bft)
29.02.2024 15:45 12,6 C 53 % 1009,9 hPa 0,0 l/m 5,5 km/h (2 Bft) S-SW 207 3,3 C 12,6 C 16,1 km/h (3 Bft)
29.02.2024 15:40 12,7 C 53 % 1010,0 hPa 0,0 l/m 4,6 km/h (1 Bft) O 89 3,4 C 12,7 C 14,5 km/h (3 Bft)
29.02.2024 15:35 12,8 C 56 % 1010,1 hPa 0,0 l/m 2,3 km/h (1 Bft) SO 141 4,2 C 12,8 C 6,4 km/h (2 Bft)
29.02.2024 15:30 12,8 C 54 % 1010,2 hPa 0,0 l/m 2,5 km/h (1 Bft) S-SW 207 3,7 C 12,8 C 6,4 km/h (2 Bft)
29.02.2024 15:25 12,8 C 54 % 1010,2 hPa 0,0 l/m 2,2 km/h (1 Bft) S-SW 192 3,7 C 12,8 C 4,8 km/h (1 Bft)
29.02.2024 15:20 12,7 C 55 % 1010,3 hPa 0,0 l/m 3,3 km/h (1 Bft) S-SW 196 3,9 C 12,7 C 8,0 km/h (2 Bft)
29.02.2024 15:15 12,5 C 54 % 1010,4 hPa 0,0 l/m 3,0 km/h (1 Bft) S-SW 205 3,5 C 12,5 C 8,0 km/h (2 Bft)
29.02.2024 15:10 12,3 C 54 % 1010,4 hPa 0,0 l/m 3,8 km/h (1 Bft) S-SW 203 3,3 C 12,3 C 8,0 km/h (2 Bft)
29.02.2024 15:05 12,1 C 55 % 1010,6 hPa 0,0 l/m 4,7 km/h (1 Bft) SW 221 3,3 C 12,1 C 11,3 km/h (2 Bft)
29.02.2024 15:00 12,0 C 55 % 1010,7 hPa 0,0 l/m 5,5 km/h (2 Bft) SW 229 3,2 C 12,0 C 9,7 km/h (2 Bft)
29.02.2024 14:55 11,9 C 55 % 1010,8 hPa 0,0 l/m 4,7 km/h (1 Bft) SW 235 3,2 C 11,9 C 11,3 km/h (2 Bft)
29.02.2024 14:50 11,9 C 54 % 1010,9 hPa 0,0 l/m 4,4 km/h (1 Bft) SO 142 2,9 C 11,9 C 12,9 km/h (3 Bft)
29.02.2024 14:45 12,0 C 55 % 1011,0 hPa 0,0 l/m 4,6 km/h (1 Bft) S 184 3,2 C 12,0 C 14,5 km/h (3 Bft)
29.02.2024 14:40 12,1 C 55 % 1011,1 hPa 0,0 l/m 4,0 km/h (1 Bft) SW 230 3,3 C 12,1 C 9,7 km/h (2 Bft)
29.02.2024 14:35 12,1 C 55 % 1011,2 hPa 0,0 l/m 4,3 km/h (1 Bft) W-SW 240 3,3 C 12,1 C 11,3 km/h (2 Bft)
29.02.2024 14:30 12,1 C 56 % 1011,1 hPa 0,0 l/m 1,0 km/h (0 Bft) SW 227 3,6 C 12,1 C 6,4 km/h (2 Bft)
29.02.2024 14:25 11,9 C 55 % 1011,3 hPa 0,0 l/m 3,7 km/h (1 Bft) SW 229 3,2 C 11,9 C 11,3 km/h (2 Bft)
29.02.2024 14:20 12,0 C 56 % 1011,4 hPa 0,0 l/m 3,6 km/h (1 Bft) W-SW 248 3,5 C 12,0 C 9,7 km/h (2 Bft)
29.02.2024 14:15 12,1 C 55 % 1011,5 hPa 0,0 l/m 3,3 km/h (1 Bft) W-SW 240 3,3 C 12,1 C 6,4 km/h (2 Bft)
29.02.2024 14:10 12,1 C 55 % 1011,5 hPa 0,0 l/m 4,2 km/h (1 Bft) S 184 3,3 C 12,1 C 11,3 km/h (2 Bft)
29.02.2024 14:05 12,1 C 56 % 1011,9 hPa 0,0 l/m 3,1 km/h (1 Bft) W-SW 238 3,6 C 12,1 C 8,0 km/h (2 Bft)
29.02.2024 14:00 12,2 C 56 % 1011,9 hPa 0,0 l/m 4,2 km/h (1 Bft) SW 221 3,7 C 12,2 C 14,5 km/h (3 Bft)
29.02.2024 13:55 12,1 C 59 % 1011,9 hPa 0,0 l/m 2,8 km/h (1 Bft) S-SW 192 4,3 C 12,1 C 9,7 km/h (2 Bft)
29.02.2024 13:50 12,1 C 57 % 1012,0 hPa 0,0 l/m 5,3 km/h (1 Bft) S-SO 159 3,8 C 12,1 C 14,5 km/h (3 Bft)
29.02.2024 13:45 12,2 C 59 % 1012,1 hPa 0,0 l/m 4,1 km/h (1 Bft) S-SW 205 4,4 C 12,2 C 9,7 km/h (2 Bft)
29.02.2024 13:40 12,3 C 59 % 1012,1 hPa 0,0 l/m 5,4 km/h (2 Bft) SW 215 4,5 C 12,3 C 12,9 km/h (3 Bft)
29.02.2024 13:35 12,4 C 59 % 1012,3 hPa 0,0 l/m 5,6 km/h (2 Bft) W-SW 240 4,6 C 12,4 C 12,9 km/h (3 Bft)
29.02.2024 13:30 12,4 C 59 % 1012,2 hPa 0,0 l/m 3,8 km/h (1 Bft) SW 216 4,6 C 12,4 C 8,0 km/h (2 Bft)
29.02.2024 13:25 12,3 C 60 % 1012,3 hPa 0,0 l/m 3,0 km/h (1 Bft) SW 231 4,8 C 12,3 C 8,0 km/h (2 Bft)
29.02.2024 13:20 12,3 C 62 % 1012,3 hPa 0,0 l/m 1,9 km/h (1 Bft) S 182 5,2 C 12,3 C 4,8 km/h (1 Bft)
29.02.2024 13:15 12,2 C 62 % 1012,4 hPa 0,0 l/m 2,3 km/h (1 Bft) S 181 5,1 C 12,2 C 8,0 km/h (2 Bft)
29.02.2024 13:10 12,0 C 61 % 1012,5 hPa 0,0 l/m 3,2 km/h (1 Bft) SW 222 4,7 C 12,0 C 8,0 km/h (2 Bft)
29.02.2024 13:05 11,9 C 62 % 1012,7 hPa 0,0 l/m 4,3 km/h (1 Bft) S-SW 203 4,9 C 11,9 C 12,9 km/h (3 Bft)
29.02.2024 13:00 11,7 C 63 % 1012,7 hPa 0,0 l/m 3,6 km/h (1 Bft) O 91 4,9 C 11,7 C 6,4 km/h (2 Bft)
29.02.2024 12:55 11,6 C 63 % 1012,8 hPa 0,0 l/m 3,2 km/h (1 Bft) W-SW 244 4,8 C 11,6 C 11,3 km/h (2 Bft)
29.02.2024 12:50 11,4 C 64 % 1013,0 hPa 0,0 l/m 5,0 km/h (1 Bft) S 186 4,8 C 11,4 C 14,5 km/h (3 Bft)
29.02.2024 12:45 11,3 C 63 % 1013,1 hPa 0,0 l/m 4,1 km/h (1 Bft) SW 217 4,5 C 11,3 C 11,3 km/h (2 Bft)
29.02.2024 12:40 11,2 C 65 % 1013,2 hPa 0,0 l/m 5,7 km/h (2 Bft) SW 215 4,9 C 11,2 C 14,5 km/h (3 Bft)
29.02.2024 12:35 11,2 C 63 % 1013,3 hPa 0,0 l/m 5,6 km/h (2 Bft) SW 233 4,4 C 11,2 C 14,5 km/h (3 Bft)
29.02.2024 12:30 11,2 C 62 % 1013,3 hPa 0,0 l/m 5,0 km/h (1 Bft) S-SW 204 4,2 C 11,2 C 14,5 km/h (3 Bft)
29.02.2024 12:25 11,2 C 64 % 1013,4 hPa 0,0 l/m 3,5 km/h (1 Bft) S 174 4,6 C 11,2 C 12,9 km/h (3 Bft)
29.02.2024 12:20 11,1 C 63 % 1013,5 hPa 0,0 l/m 5,1 km/h (1 Bft) SO 141 4,3 C 11,1 C 12,9 km/h (3 Bft)
29.02.2024 12:15 11,2 C 63 % 1013,6 hPa 0,0 l/m 4,1 km/h (1 Bft) S 182 4,4 C 11,2 C 8,0 km/h (2 Bft)
29.02.2024 12:10 11,2 C 62 % 1013,7 hPa 0,0 l/m 4,0 km/h (1 Bft) SW 227 4,2 C 11,2 C 11,3 km/h (2 Bft)
29.02.2024 12:05 11,1 C 64 % 1013,6 hPa 0,0 l/m 2,3 km/h (1 Bft) NW 309 4,6 C 11,1 C 6,4 km/h (2 Bft)
29.02.2024 12:00 11,0 C 63 % 1013,7 hPa 0,0 l/m 4,7 km/h (1 Bft) O-SO 105 4,2 C 11,0 C 12,9 km/h (3 Bft)
29.02.2024 11:55 11,2 C 62 % 1013,7 hPa 0,0 l/m 3,9 km/h (1 Bft) O 84 4,2 C 11,2 C 12,9 km/h (3 Bft)
29.02.2024 11:50 11,3 C 61 % 1013,9 hPa 0,0 l/m 2,9 km/h (1 Bft) SO 125 4,1 C 11,3 C 8,0 km/h (2 Bft)
29.02.2024 11:45 11,6 C 60 % 1014,0 hPa 0,0 l/m 4,9 km/h (1 Bft) O-SO 119 4,1 C 11,6 C 17,7 km/h (3 Bft)
29.02.2024 11:40 11,8 C 62 % 1013,9 hPa 0,0 l/m 2,8 km/h (1 Bft) SO 126 4,8 C 11,8 C 12,9 km/h (3 Bft)
29.02.2024 11:35 11,7 C 62 % 1013,9 hPa 0,0 l/m 1,9 km/h (1 Bft) S 186 4,7 C 11,7 C 9,7 km/h (2 Bft)
29.02.2024 11:30 11,7 C 62 % 1014,0 hPa 0,0 l/m 3,3 km/h (1 Bft) W-SW 258 4,7 C 11,7 C 6,4 km/h (2 Bft)
29.02.2024 11:25 11,5 C 65 % 1013,9 hPa 0,0 l/m 3,1 km/h (1 Bft) S-SO 165 5,2 C 11,5 C 8,0 km/h (2 Bft)
29.02.2024 11:20 11,1 C 65 % 1014,1 hPa 0,0 l/m 1,5 km/h (1 Bft) W-SW 238 4,8 C 11,1 C 6,4 km/h (2 Bft)
29.02.2024 11:15 10,7 C 66 % 1014,1 hPa 0,0 l/m 2,8 km/h (1 Bft) W-SW 243 4,6 C 10,7 C 11,3 km/h (2 Bft)
29.02.2024 11:10 10,7 C 65 % 1014,2 hPa 0,0 l/m 4,9 km/h (1 Bft) S 180 4,4 C 10,7 C 12,9 km/h (3 Bft)
29.02.2024 11:05 10,7 C 66 % 1014,2 hPa 0,0 l/m 3,3 km/h (1 Bft) W 266 4,6 C 10,7 C 6,4 km/h (2 Bft)
29.02.2024 11:00 10,6 C 67 % 1014,2 hPa 0,0 l/m 3,0 km/h (1 Bft) O 95 4,7 C 10,6 C 11,3 km/h (2 Bft)
29.02.2024 10:55 10,2 C 68 % 1014,3 hPa 0,0 l/m 3,5 km/h (1 Bft) O-SO 114 4,6 C 10,2 C 11,3 km/h (2 Bft)
29.02.2024 10:50 9,9 C 68 % 1014,3 hPa 0,0 l/m 2,1 km/h (1 Bft) O-SO 110 4,3 C 9,9 C 11,3 km/h (2 Bft)
29.02.2024 10:45 9,7 C 69 % 1014,4 hPa 0,0 l/m 3,4 km/h (1 Bft) O-SO 116 4,3 C 9,7 C 11,3 km/h (2 Bft)
29.02.2024 10:40 9,6 C 70 % 1014,5 hPa 0,0 l/m 4,7 km/h (1 Bft) O-SO 121 4,4 C 9,6 C 11,3 km/h (2 Bft)
29.02.2024 10:35 9,3 C 70 % 1014,4 hPa 0,0 l/m 2,1 km/h (1 Bft) O 86 4,1 C 9,3 C 9,7 km/h (2 Bft)
29.02.2024 10:30 9,0 C 72 % 1014,7 hPa 0,0 l/m 1,3 km/h (1 Bft) S 186 4,2 C 9,0 C 4,8 km/h (1 Bft)
29.02.2024 10:25 8,6 C 73 % 1014,6 hPa 0,0 l/m 1,4 km/h (1 Bft) S 190 4,0 C 8,6 C 8,0 km/h (2 Bft)
29.02.2024 10:20 8,3 C 73 % 1014,6 hPa 0,0 l/m 2,7 km/h (1 Bft) O-SO 105 3,8 C 8,3 C 9,7 km/h (2 Bft)
29.02.2024 10:15 8,1 C 73 % 1014,7 hPa 0,0 l/m 2,8 km/h (1 Bft) O 101 3,6 C 8,1 C 11,3 km/h (2 Bft)
29.02.2024 10:10 7,7 C 76 % 1014,9 hPa 0,0 l/m 2,2 km/h (1 Bft) O 93 3,7 C 7,7 C 6,4 km/h (2 Bft)
29.02.2024 10:05 7,4 C 76 % 1015,0 hPa 0,0 l/m 0,3 km/h (0 Bft) NO 40 3,5 C 7,4 C 3,2 km/h (1 Bft)
29.02.2024 10:00 7,2 C 77 % 1015,0 hPa 0,0 l/m 2,4 km/h (1 Bft) NO 40 3,4 C 7,2 C 4,8 km/h (1 Bft)
29.02.2024 09:55 7,1 C 77 % 1014,9 hPa 0,0 l/m 1,7 km/h (1 Bft) NO 38 3,3 C 7,1 C 4,8 km/h (1 Bft)
29.02.2024 09:50 6,9 C 77 % 1015,0 hPa 0,0 l/m 3,0 km/h (1 Bft) NO 34 3,2 C 6,9 C 6,4 km/h (2 Bft)
29.02.2024 09:45 6,6 C 79 % 1015,0 hPa 0,0 l/m 1,8 km/h (1 Bft) O-NO 60 3,2 C 6,6 C 8,0 km/h (2 Bft)
29.02.2024 09:40 6,3 C 80 % 1015,0 hPa 0,0 l/m 2,4 km/h (1 Bft) O-NO 61 3,1 C 6,3 C 6,4 km/h (2 Bft)
29.02.2024 09:35 6,1 C 80 % 1015,1 hPa 0,0 l/m 3,2 km/h (1 Bft) N 355 2,9 C 6,1 C 6,4 km/h (2 Bft)
29.02.2024 09:30 5,9 C 80 % 1015,2 hPa 0,0 l/m 4,4 km/h (1 Bft) NW 316 2,7 C 5,9 C 12,9 km/h (3 Bft)
29.02.2024 09:25 5,7 C 80 % 1015,3 hPa 0,0 l/m 4,2 km/h (1 Bft) N 360 2,5 C 5,7 C 14,5 km/h (3 Bft)
29.02.2024 09:20 5,5 C 80 % 1015,4 hPa 0,0 l/m 3,8 km/h (1 Bft) N 360 2,3 C 5,5 C 12,9 km/h (3 Bft)
29.02.2024 09:15 5,3 C 80 % 1015,4 hPa 0,0 l/m 2,7 km/h (1 Bft) N 360 2,1 C 5,3 C 6,4 km/h (2 Bft)
29.02.2024 09:10 5,3 C 79 % 1015,4 hPa 0,0 l/m 3,6 km/h (1 Bft) N 360 2,0 C 5,3 C 12,9 km/h (3 Bft)
29.02.2024 09:05 5,2 C 80 % 1015,4 hPa 0,0 l/m 6,1 km/h (2 Bft) N 360 2,0 C 5,2 C 14,5 km/h (3 Bft)
29.02.2024 09:00 5,1 C 79 % 1015,5 hPa 0,0 l/m 6,3 km/h (2 Bft) N 360 1,8 C 5,1 C 14,5 km/h (3 Bft)
29.02.2024 08:55 4,9 C 79 % 1015,5 hPa 0,0 l/m 4,4 km/h (1 Bft) N 360 1,6 C 4,9 C 14,5 km/h (3 Bft)
29.02.2024 08:50 4,7 C 79 % 1015,4 hPa 0,0 l/m 4,2 km/h (1 Bft) N 360 1,4 C 4,7 C 14,5 km/h (3 Bft)
29.02.2024 08:45 4,6 C 79 % 1015,4 hPa 0,0 l/m 7,2 km/h (2 Bft) N 360 1,3 C 3,9 C 22,5 km/h (4 Bft)
29.02.2024 08:40 4,4 C 79 % 1015,4 hPa 0,0 l/m 7,1 km/h (2 Bft) N 360 1,1 C 3,8 C 19,3 km/h (3 Bft)
29.02.2024 08:35 4,3 C 79 % 1015,4 hPa 0,0 l/m 6,8 km/h (2 Bft) N 360 1,0 C 3,9 C 19,3 km/h (3 Bft)
29.02.2024 08:30 4,2 C 79 % 1015,3 hPa 0,0 l/m 8,0 km/h (2 Bft) N 360 0,9 C 2,8 C 20,9 km/h (4 Bft)
29.02.2024 08:25 4,2 C 79 % 1015,4 hPa 0,0 l/m 11,8 km/h (2 Bft) N 360 0,9 C -0,0 C 27,4 km/h (5 Bft)
29.02.2024 08:20 4,0 C 78 % 1015,2 hPa 0,0 l/m 9,7 km/h (2 Bft) N 360 0,5 C 1,2 C 24,1 km/h (4 Bft)
29.02.2024 08:15 4,0 C 78 % 1015,3 hPa 0,0 l/m 9,4 km/h (2 Bft) N 360 0,5 C 1,4 C 24,1 km/h (4 Bft)
29.02.2024 08:10 3,9 C 78 % 1015,5 hPa 0,0 l/m 8,2 km/h (2 Bft) N 360 0,4 C 2,3 C 20,9 km/h (4 Bft)
29.02.2024 08:05 3,9 C 78 % 1015,6 hPa 0,0 l/m 7,5 km/h (2 Bft) N 360 0,4 C 2,9 C 19,3 km/h (3 Bft)
29.02.2024 08:00 3,9 C 78 % 1015,5 hPa 0,0 l/m 10,0 km/h (2 Bft) N 360 0,4 C 0,9 C 22,5 km/h (4 Bft)
29.02.2024 07:55 3,9 C 78 % 1015,6 hPa 0,0 l/m 7,4 km/h (2 Bft) N 360 0,4 C 3,0 C 20,9 km/h (4 Bft)
29.02.2024 07:50 3,9 C 77 % 1015,6 hPa 0,0 l/m 6,8 km/h (2 Bft) N 360 0,2 C 3,5 C 17,7 km/h (3 Bft)
29.02.2024 07:45 3,8 C 78 % 1015,7 hPa 0,0 l/m 9,1 km/h (2 Bft) N 360 0,3 C 1,4 C 20,9 km/h (4 Bft)
29.02.2024 07:40 3,6 C 80 % 1015,7 hPa 0,0 l/m 7,7 km/h (2 Bft) N 360 0,5 C 2,4 C 24,1 km/h (4 Bft)
29.02.2024 07:35 3,3 C 81 % 1015,7 hPa 0,0 l/m 5,9 km/h (2 Bft) N 360 0,4 C 3,3 C 14,5 km/h (3 Bft)
29.02.2024 07:30 3,2 C 82 % 1015,8 hPa 0,0 l/m 7,0 km/h (2 Bft) N 360 0,4 C 2,6 C 19,3 km/h (3 Bft)
29.02.2024 07:25 2,9 C 84 % 1016,0 hPa 0,0 l/m 4,3 km/h (1 Bft) N 360 0,5 C 2,9 C 12,9 km/h (3 Bft)
29.02.2024 07:20 2,8 C 85 % 1016,0 hPa 0,0 l/m 2,8 km/h (1 Bft) N 360 0,5 C 2,8 C 12,9 km/h (3 Bft)
29.02.2024 07:15 2,8 C 84 % 1016,2 hPa 0,0 l/m 1,0 km/h (0 Bft) N 360 0,4 C 2,8 C 4,8 km/h (1 Bft)
29.02.2024 07:10 2,8 C 84 % 1016,3 hPa 0,0 l/m 0,2 km/h (0 Bft) N 360 0,4 C 2,8 C 1,6 km/h (1 Bft)
29.02.2024 07:05 2,9 C 84 % 1016,4 hPa 0,0 l/m 1,9 km/h (1 Bft) N 360 0,5 C 2,9 C 8,0 km/h (2 Bft)
29.02.2024 07:00 3,0 C 83 % 1016,4 hPa 0,0 l/m 3,0 km/h (1 Bft) N 360 0,4 C 3,0 C 8,0 km/h (2 Bft)
29.02.2024 06:55 3,0 C 83 % 1016,4 hPa 0,0 l/m 2,0 km/h (1 Bft) N 360 0,4 C 3,0 C 4,8 km/h (1 Bft)
29.02.2024 06:50 3,0 C 83 % 1016,4 hPa 0,0 l/m 1,9 km/h (1 Bft) N 360 0,4 C 3,0 C 6,4 km/h (2 Bft)
29.02.2024 06:45 3,1 C 83 % 1016,4 hPa 0,0 l/m 2,5 km/h (1 Bft) N 360 0,5 C 3,1 C 8,0 km/h (2 Bft)
29.02.2024 06:40 3,0 C 83 % 1016,4 hPa 0,0 l/m 2,5 km/h (1 Bft) N 360 0,4 C 3,0 C 8,0 km/h (2 Bft)
29.02.2024 06:35 3,0 C 82 % 1016,5 hPa 0,0 l/m 1,4 km/h (1 Bft) N 360 0,2 C 3,0 C 4,8 km/h (1 Bft)
29.02.2024 06:30 2,9 C 82 % 1016,4 hPa 0,0 l/m 2,7 km/h (1 Bft) N 360 0,1 C 2,9 C 9,7 km/h (2 Bft)
29.02.2024 06:25 2,9 C 82 % 1016,5 hPa 0,0 l/m 0,6 km/h (0 Bft) N 360 0,1 C 2,9 C 4,8 km/h (1 Bft)
29.02.2024 06:20 2,9 C 83 % 1016,6 hPa 0,0 l/m 1,1 km/h (1 Bft) N 360 0,3 C 2,9 C 4,8 km/h (1 Bft)
29.02.2024 06:15 2,9 C 83 % 1016,7 hPa 0,0 l/m 0,9 km/h (0 Bft) N 360 0,3 C 2,9 C 4,8 km/h (1 Bft)
29.02.2024 06:10 2,9 C 84 % 1016,7 hPa 0,0 l/m 1,4 km/h (1 Bft) N 360 0,5 C 2,9 C 6,4 km/h (2 Bft)
29.02.2024 06:05 2,9 C 84 % 1016,8 hPa 0,0 l/m 0,6 km/h (0 Bft) N 360 0,5 C 2,9 C 3,2 km/h (1 Bft)
29.02.2024 06:00 2,9 C 84 % 1016,8 hPa 0,0 l/m 1,4 km/h (1 Bft) N 360 0,5 C 2,9 C 6,4 km/h (2 Bft)
29.02.2024 05:55 2,9 C 84 % 1016,8 hPa 0,0 l/m 0,8 km/h (0 Bft) N 360 0,5 C 2,9 C 6,4 km/h (2 Bft)
29.02.2024 05:50 2,9 C 84 % 1016,7 hPa 0,0 l/m 0,4 km/h (0 Bft) N 360 0,5 C 2,9 C 3,2 km/h (1 Bft)
29.02.2024 05:45 2,9 C 85 % 1016,7 hPa 0,0 l/m 2,2 km/h (1 Bft) N 360 0,6 C 2,9 C 6,4 km/h (2 Bft)
29.02.2024 05:40 2,9 C 84 % 1016,9 hPa 0,0 l/m 0,6 km/h (0 Bft) N 360 0,5 C 2,9 C 3,2 km/h (1 Bft)
29.02.2024 05:35 2,9 C 84 % 1016,9 hPa 0,0 l/m 1,6 km/h (1 Bft) N 360 0,5 C 2,9 C 4,8 km/h (1 Bft)
29.02.2024 05:30 2,9 C 84 % 1016,8 hPa 0,0 l/m 1,8 km/h (1 Bft) N 360 0,5 C 2,9 C 4,8 km/h (1 Bft)
29.02.2024 05:25 3,0 C 84 % 1017,0 hPa 0,0 l/m 1,4 km/h (1 Bft) N 360 0,6 C 3,0 C 6,4 km/h (2 Bft)
29.02.2024 05:20 3,0 C 84 % 1017,1 hPa 0,0 l/m 1,3 km/h (1 Bft) N 360 0,6 C 3,0 C 4,8 km/h (1 Bft)
29.02.2024 05:15 3,0 C 84 % 1017,2 hPa 0,0 l/m 1,8 km/h (1 Bft) N 360 0,6 C 3,0 C 4,8 km/h (1 Bft)
29.02.2024 05:10 2,9 C 84 % 1017,2 hPa 0,0 l/m 2,1 km/h (1 Bft) N 360 0,5 C 2,9 C 8,0 km/h (2 Bft)
29.02.2024 05:05 2,9 C 85 % 1017,3 hPa 0,0 l/m 1,2 km/h (1 Bft) N 360 0,6 C 2,9 C 4,8 km/h (1 Bft)
29.02.2024 05:00 2,9 C 84 % 1017,3 hPa 0,0 l/m 0,4 km/h (0 Bft) N 360 0,5 C 2,9 C 3,2 km/h (1 Bft)
29.02.2024 04:55 2,9 C 85 % 1017,4 hPa 0,0 l/m 1,2 km/h (1 Bft) N 360 0,6 C 2,9 C 3,2 km/h (1 Bft)
29.02.2024 04:50 2,9 C 84 % 1017,5 hPa 0,0 l/m 0,4 km/h (0 Bft) N 360 0,5 C 2,9 C 3,2 km/h (1 Bft)
29.02.2024 04:45 2,9 C 84 % 1017,7 hPa 0,0 l/m 1,1 km/h (1 Bft) N 360 0,5 C 2,9 C 8,0 km/h (2 Bft)
29.02.2024 04:40 3,0 C 84 % 1017,6 hPa 0,0 l/m 0,3 km/h (0 Bft) N 360 0,6 C 3,0 C 1,6 km/h (1 Bft)
29.02.2024 04:35 3,0 C 84 % 1017,7 hPa 0,0 l/m 1,1 km/h (1 Bft) N 360 0,6 C 3,0 C 3,2 km/h (1 Bft)
29.02.2024 04:30 3,0 C 83 % 1017,9 hPa 0,0 l/m 0,4 km/h (0 Bft) N 360 0,4 C 3,0 C 4,8 km/h (1 Bft)
29.02.2024 04:25 3,1 C 83 % 1017,9 hPa 0,0 l/m 0,3 km/h (0 Bft) N 360 0,5 C 3,1 C 3,2 km/h (1 Bft)
29.02.2024 04:20 3,2 C 83 % 1017,9 hPa 0,0 l/m 0,3 km/h (0 Bft) N 360 0,6 C 3,2 C 3,2 km/h (1 Bft)
29.02.2024 04:15 3,2 C 83 % 1018,2 hPa 0,0 l/m 1,5 km/h (1 Bft) N 360 0,6 C 3,2 C 6,4 km/h (2 Bft)
29.02.2024 04:10 3,2 C 83 % 1018,2 hPa 0,0 l/m 0,2 km/h (0 Bft) N 360 0,6 C 3,2 C 4,8 km/h (1 Bft)
29.02.2024 04:05 3,3 C 83 % 1018,3 hPa 0,0 l/m 0,9 km/h (0 Bft) N 360 0,7 C 3,3 C 4,8 km/h (1 Bft)
29.02.2024 04:00 3,3 C 83 % 1018,4 hPa 0,0 l/m 0,6 km/h (0 Bft) N 360 0,7 C 3,3 C 4,8 km/h (1 Bft)
29.02.2024 03:55 3,4 C 83 % 1018,3 hPa 0,0 l/m 1,9 km/h (1 Bft) N 360 0,8 C 3,4 C 6,4 km/h (2 Bft)
29.02.2024 03:50 3,5 C 82 % 1018,4 hPa 0,0 l/m 0,7 km/h (0 Bft) N 360 0,7 C 3,5 C 3,2 km/h (1 Bft)
29.02.2024 03:45 3,6 C 82 % 1018,5 hPa 0,0 l/m 1,0 km/h (0 Bft) N 360 0,8 C 3,6 C 4,8 km/h (1 Bft)
29.02.2024 03:40 3,8 C 81 % 1018,6 hPa 0,0 l/m 0,5 km/h (0 Bft) N 360 0,8 C 3,8 C 3,2 km/h (1 Bft)
29.02.2024 03:35 3,8 C 81 % 1018,7 hPa 0,0 l/m 3,4 km/h (1 Bft) N 360 0,8 C 3,8 C 8,0 km/h (2 Bft)
29.02.2024 03:30 3,9 C 80 % 1018,8 hPa 0,0 l/m 2,7 km/h (1 Bft) N 360 0,8 C 3,9 C 6,4 km/h (2 Bft)
29.02.2024 03:25 4,0 C 79 % 1018,8 hPa 0,0 l/m 1,3 km/h (1 Bft) N 360 0,7 C 4,0 C 4,8 km/h (1 Bft)
29.02.2024 03:20 4,2 C 79 % 1018,9 hPa 0,0 l/m 1,9 km/h (1 Bft) N 360 0,9 C 4,2 C 6,4 km/h (2 Bft)
29.02.2024 03:15 4,4 C 78 % 1018,9 hPa 0,0 l/m 1,0 km/h (0 Bft) N 360 0,9 C 4,4 C 4,8 km/h (1 Bft)
29.02.2024 03:10 4,5 C 77 % 1019,0 hPa 0,0 l/m 0,9 km/h (0 Bft) N 360 0,8 C 4,5 C 3,2 km/h (1 Bft)
29.02.2024 03:05 4,7 C 77 % 1019,0 hPa 0,0 l/m 1,7 km/h (1 Bft) N 360 1,0 C 4,7 C 4,8 km/h (1 Bft)
29.02.2024 03:00 4,8 C 76 % 1019,0 hPa 0,0 l/m 2,5 km/h (1 Bft) N 360 0,9 C 4,8 C 9,7 km/h (2 Bft)
29.02.2024 02:55 4,9 C 75 % 1019,0 hPa 0,0 l/m 2,2 km/h (1 Bft) N 360 0,8 C 4,9 C 8,0 km/h (2 Bft)
29.02.2024 02:50 4,9 C 75 % 1019,0 hPa 0,0 l/m 4,7 km/h (1 Bft) N 360 0,8 C 4,9 C 12,9 km/h (3 Bft)
29.02.2024 02:45 4,9 C 75 % 1019,1 hPa 0,0 l/m 4,1 km/h (1 Bft) N 360 0,8 C 4,9 C 12,9 km/h (3 Bft)
29.02.2024 02:40 5,0 C 74 % 1019,2 hPa 0,0 l/m 5,5 km/h (2 Bft) N 360 0,8 C 5,0 C 12,9 km/h (3 Bft)
29.02.2024 02:35 5,1 C 74 % 1019,2 hPa 0,0 l/m 5,5 km/h (2 Bft) N 360 0,9 C 5,1 C 14,5 km/h (3 Bft)
29.02.2024 02:30 5,1 C 74 % 1019,4 hPa 0,0 l/m 7,3 km/h (2 Bft) N 360 0,9 C 4,3 C 17,7 km/h (3 Bft)
29.02.2024 02:25 5,1 C 74 % 1019,4 hPa 0,0 l/m 5,0 km/h (1 Bft) N 360 0,9 C 5,1 C 14,5 km/h (3 Bft)
29.02.2024 02:20 5,2 C 73 % 1019,5 hPa 0,0 l/m 8,1 km/h (2 Bft) N 360 0,8 C 3,7 C 16,1 km/h (3 Bft)
29.02.2024 02:15 5,2 C 73 % 1019,5 hPa 0,0 l/m 9,2 km/h (2 Bft) N 360 0,8 C 2,9 C 20,9 km/h (4 Bft)
29.02.2024 02:10 5,2 C 73 % 1019,5 hPa 0,0 l/m 7,9 km/h (2 Bft) N 360 0,8 C 3,9 C 19,3 km/h (3 Bft)
29.02.2024 02:05 5,3 C 71 % 1019,6 hPa 0,0 l/m 7,8 km/h (2 Bft) N 360 0,5 C 4,1 C 19,3 km/h (3 Bft)
29.02.2024 02:00 5,4 C 72 % 1019,6 hPa 0,0 l/m 8,6 km/h (2 Bft) N 360 0,8 C 3,5 C 17,7 km/h (3 Bft)
29.02.2024 01:55 5,4 C 71 % 1019,7 hPa 0,0 l/m 8,7 km/h (2 Bft) N 360 0,6 C 3,5 C 19,3 km/h (3 Bft)
29.02.2024 01:50 5,5 C 72 % 1019,7 hPa 0,0 l/m 5,9 km/h (2 Bft) N 360 0,9 C 5,5 C 12,9 km/h (3 Bft)
29.02.2024 01:45 5,6 C 72 % 1019,8 hPa 0,0 l/m 5,7 km/h (2 Bft) N 360 1,0 C 5,6 C 16,1 km/h (3 Bft)
29.02.2024 01:40 5,6 C 71 % 1019,7 hPa 0,0 l/m 5,5 km/h (2 Bft) N 360 0,8 C 5,6 C 12,9 km/h (3 Bft)
29.02.2024 01:35 5,6 C 71 % 1019,7 hPa 0,0 l/m 5,8 km/h (2 Bft) N 360 0,8 C 5,6 C 14,5 km/h (3 Bft)
29.02.2024 01:30 5,7 C 70 % 1019,6 hPa 0,0 l/m 5,2 km/h (1 Bft) N 360 0,7 C 5,7 C 9,7 km/h (2 Bft)
29.02.2024 01:25 5,7 C 69 % 1019,6 hPa 0,0 l/m 5,8 km/h (2 Bft) N 360 0,5 C 5,7 C 14,5 km/h (3 Bft)
29.02.2024 01:20 5,7 C 69 % 1019,7 hPa 0,0 l/m 6,5 km/h (2 Bft) N 360 0,5 C 5,6 C 17,7 km/h (3 Bft)
29.02.2024 01:15 5,7 C 69 % 1019,7 hPa 0,0 l/m 5,9 km/h (2 Bft) N 360 0,5 C 5,7 C 14,5 km/h (3 Bft)
29.02.2024 01:10 5,7 C 69 % 1019,8 hPa 0,0 l/m 5,1 km/h (1 Bft) N 360 0,5 C 5,7 C 14,5 km/h (3 Bft)
29.02.2024 01:05 5,8 C 69 % 1019,8 hPa 0,0 l/m 4,4 km/h (1 Bft) N 360 0,6 C 5,8 C 14,5 km/h (3 Bft)
29.02.2024 01:00 5,9 C 67 % 1019,8 hPa 0,0 l/m 5,5 km/h (2 Bft) N 360 0,3 C 5,9 C 16,1 km/h (3 Bft)
29.02.2024 00:55 6,0 C 66 % 1019,9 hPa 0,0 l/m 4,5 km/h (1 Bft) N 360 0,1 C 6,0 C 9,7 km/h (2 Bft)
29.02.2024 00:50 6,1 C 66 % 1019,8 hPa 0,0 l/m 5,0 km/h (1 Bft) N 360 0,2 C 6,1 C 12,9 km/h (3 Bft)
29.02.2024 00:45 6,1 C 65 % 1019,7 hPa 0,0 l/m 7,1 km/h (2 Bft) N 360 0,0 C 5,5 C 17,7 km/h (3 Bft)
29.02.2024 00:40 6,0 C 66 % 1019,9 hPa 0,0 l/m 4,9 km/h (1 Bft) N 360 0,1 C 6,0 C 9,7 km/h (2 Bft)
29.02.2024 00:35 6,0 C 66 % 1019,9 hPa 0,0 l/m 5,4 km/h (2 Bft) N 360 0,1 C 6,0 C 12,9 km/h (3 Bft)
29.02.2024 00:30 5,9 C 67 % 1020,0 hPa 0,0 l/m 4,8 km/h (1 Bft) N 360 0,3 C 5,9 C 16,1 km/h (3 Bft)
29.02.2024 00:25 6,0 C 69 % 1019,9 hPa 0,0 l/m 3,9 km/h (1 Bft) N 360 0,8 C 6,0 C 9,7 km/h (2 Bft)
29.02.2024 00:20 6,0 C 69 % 1020,0 hPa 0,0 l/m 5,0 km/h (1 Bft) N 360 0,8 C 6,0 C 12,9 km/h (3 Bft)
29.02.2024 00:15 6,1 C 70 % 1020,0 hPa 0,0 l/m 4,6 km/h (1 Bft) N 360 1,0 C 6,1 C 9,7 km/h (2 Bft)
29.02.2024 00:10 6,1 C 71 % 1020,0 hPa 0,0 l/m 4,9 km/h (1 Bft) N 360 1,2 C 6,1 C 14,5 km/h (3 Bft)
29.02.2024 00:05 6,0 C 72 % 1020,0 hPa 0,0 l/m 5,3 km/h (1 Bft) N 360 1,3 C 6,0 C 14,5 km/h (3 Bft)
29.02.2024 00:00 6,0 C 74 % 1020,1 hPa 0,0 l/m 5,0 km/h (1 Bft) N 360 1,7 C 6,0 C 8,0 km/h (2 Bft)
28.02.2024 23:55 6,1 C 76 % 1020,1 hPa 0,0 l/m 4,2 km/h (1 Bft) N 360 2,2 C 6,1 C 9,7 km/h (2 Bft)
28.02.2024 23:50 6,2 C 76 % 1020,3 hPa 0,0 l/m 4,7 km/h (1 Bft) N 360 2,3 C 6,2 C 12,9 km/h (3 Bft)
28.02.2024 23:45 6,3 C 76 % 1020,3 hPa 0,0 l/m 5,5 km/h (2 Bft) N 360 2,4 C 6,3 C 12,9 km/h (3 Bft)
28.02.2024 23:40 6,3 C 76 % 1020,3 hPa 0,0 l/m 6,4 km/h (2 Bft) N 360 2,4 C 6,3 C 16,1 km/h (3 Bft)
28.02.2024 23:35 6,3 C 77 % 1020,4 hPa 0,0 l/m 8,4 km/h (2 Bft) N 360 2,6 C 4,7 C 17,7 km/h (3 Bft)
28.02.2024 23:30 6,2 C 78 % 1020,4 hPa 0,0 l/m 7,3 km/h (2 Bft) N 360 2,7 C 5,4 C 19,3 km/h (3 Bft)
28.02.2024 23:25 6,3 C 78 % 1020,4 hPa 0,0 l/m 7,6 km/h (2 Bft) N 360 2,8 C 5,3 C 16,1 km/h (3 Bft)
28.02.2024 23:20 6,3 C 78 % 1020,5 hPa 0,0 l/m 8,1 km/h (2 Bft) N 360 2,8 C 4,9 C 20,9 km/h (4 Bft)
28.02.2024 23:15 6,3 C 78 % 1020,6 hPa 0,0 l/m 7,5 km/h (2 Bft) N 360 2,8 C 5,4 C 16,1 km/h (3 Bft)
28.02.2024 23:10 6,4 C 78 % 1020,6 hPa 0,0 l/m 7,0 km/h (2 Bft) N 360 2,8 C 5,9 C 14,5 km/h (3 Bft)
28.02.2024 23:05 6,5 C 78 % 1020,6 hPa 0,0 l/m 7,5 km/h (2 Bft) N 360 2,9 C 5,6 C 14,5 km/h (3 Bft)
28.02.2024 23:00 6,5 C 78 % 1020,7 hPa 0,0 l/m 7,8 km/h (2 Bft) N 360 2,9 C 5,3 C 16,1 km/h (3 Bft)
28.02.2024 22:55 6,6 C 78 % 1020,6 hPa 0,0 l/m 7,9 km/h (2 Bft) N 360 3,0 C 5,4 C 16,1 km/h (3 Bft)
28.02.2024 22:50 6,7 C 78 % 1020,8 hPa 0,0 l/m 8,6 km/h (2 Bft) N 360 3,1 C 4,9 C 17,7 km/h (3 Bft)
28.02.2024 22:45 6,7 C 78 % 1020,8 hPa 0,0 l/m 9,6 km/h (2 Bft) N 360 3,1 C 4,2 C 19,3 km/h (3 Bft)
28.02.2024 22:40 6,8 C 77 % 1020,8 hPa 0,0 l/m 7,2 km/h (2 Bft) N 360 3,1 C 6,1 C 17,7 km/h (3 Bft)
28.02.2024 22:35 6,9 C 77 % 1020,8 hPa 0,0 l/m 8,8 km/h (2 Bft) N 360 3,2 C 5,0 C 17,7 km/h (3 Bft)
28.02.2024 22:30 6,9 C 77 % 1021,0 hPa 0,0 l/m 8,8 km/h (2 Bft) N 360 3,2 C 5,0 C 17,7 km/h (3 Bft)
28.02.2024 22:25 6,9 C 77 % 1021,1 hPa 0,0 l/m 8,1 km/h (2 Bft) N 360 3,2 C 5,5 C 20,9 km/h (4 Bft)
28.02.2024 22:20 6,9 C 78 % 1021,0 hPa 0,0 l/m 7,2 km/h (2 Bft) N 360 3,3 C 6,2 C 16,1 km/h (3 Bft)
28.02.2024 22:15 6,9 C 78 % 1021,1 hPa 0,0 l/m 7,3 km/h (2 Bft) N 360 3,3 C 6,2 C 16,1 km/h (3 Bft)
28.02.2024 22:10 6,9 C 77 % 1021,1 hPa 0,0 l/m 7,2 km/h (2 Bft) N 360 3,2 C 6,2 C 17,7 km/h (3 Bft)
28.02.2024 22:05 7,0 C 77 % 1021,1 hPa 0,0 l/m 5,5 km/h (2 Bft) N 360 3,2 C 7,0 C 12,9 km/h (3 Bft)
28.02.2024 22:00 7,1 C 77 % 1021,2 hPa 0,0 l/m 6,4 km/h (2 Bft) N 360 3,3 C 7,1 C 16,1 km/h (3 Bft)
28.02.2024 21:55 7,2 C 76 % 1021,3 hPa 0,0 l/m 6,0 km/h (2 Bft) N 360 3,3 C 7,2 C 14,5 km/h (3 Bft)
28.02.2024 21:50 7,2 C 76 % 1021,3 hPa 0,0 l/m 6,7 km/h (2 Bft) N 360 3,3 C 7,0 C 12,9 km/h (3 Bft)
28.02.2024 21:45 7,2 C 75 % 1021,4 hPa 0,0 l/m 5,7 km/h (2 Bft) N 360 3,1 C 7,2 C 16,1 km/h (3 Bft)
28.02.2024 21:40 7,2 C 75 % 1021,4 hPa 0,0 l/m 6,0 km/h (2 Bft) N 360 3,1 C 7,2 C 12,9 km/h (3 Bft)
28.02.2024 21:35 7,2 C 76 % 1021,4 hPa 0,0 l/m 3,6 km/h (1 Bft) N 360 3,3 C 7,2 C 8,0 km/h (2 Bft)
28.02.2024 21:30 7,3 C 76 % 1021,4 hPa 0,0 l/m 4,5 km/h (1 Bft) N 360 3,4 C 7,3 C 9,7 km/h (2 Bft)
28.02.2024 21:25 7,3 C 76 % 1021,5 hPa 0,0 l/m 4,6 km/h (1 Bft) N 360 3,4 C 7,3 C 12,9 km/h (3 Bft)
28.02.2024 21:20 7,3 C 76 % 1021,5 hPa 0,0 l/m 4,3 km/h (1 Bft) N 360 3,4 C 7,3 C 9,7 km/h (2 Bft)
28.02.2024 21:15 7,4 C 75 % 1021,5 hPa 0,0 l/m 3,9 km/h (1 Bft) N 360 3,3 C 7,4 C 8,0 km/h (2 Bft)
28.02.2024 21:10 7,4 C 75 % 1021,5 hPa 0,0 l/m 4,8 km/h (1 Bft) N 360 3,3 C 7,4 C 12,9 km/h (3 Bft)
28.02.2024 21:05 7,4 C 75 % 1021,6 hPa 0,0 l/m 4,6 km/h (1 Bft) N 360 3,3 C 7,4 C 9,7 km/h (2 Bft)
28.02.2024 21:00 7,4 C 75 % 1021,7 hPa 0,0 l/m 4,5 km/h (1 Bft) N 360 3,3 C 7,4 C 9,7 km/h (2 Bft)
_ Min-Zeit 05:55 17:30 20:40 - 17:55 - - 00:45 08:25 04:40
Minimum _ 2,8 C 50 % 1007,3 hPa - 0,1 km/h (0 Bft) - - 0,0 C -0,0 C 1,6 km/h (1 Bft)
_ Max-Zeit 15:25 04:55 21:00 21:00 08:25 - - 13:20 15:25 08:25
Maximum _ 12,8 C 85 % 1021,7 hPa 0,0 l/m 11,8 km/h
N (2 Bft)
- - 5,2 C 12,8 C 27,4 km/h
N (5 Bft)
Durchschnitt _ 7,6 C 70 % 1015,4 hPa #0,0 l/m 3,9 km/h (1 Bft) N - 2,3 C 7,4 C 10,4 km/h (2 Bft)
www.klaudt.eu